Time;durP1;ratioP1;P1;durP2;ratioP2;P2;SDS_P1;SDS_P2;PMS_P1;PMS_P2;Temp;Humidity;BMP_temperature;BMP_pressure;BME280_temperature;BME280_humidity;BME280_pressure;Samples;Min_cycle;Max_cycle;Signal;HPM_P1;HPM_P2
2022/09/29 00:00:15;;;;;;;6.17;4.13;;;9.10;99.90;;;;;;5027254;28;20214;-54
2022/09/29 00:02:42;;;;;;;6.07;4.30;;;9.20;99.90;;;;;;5035238;28;20283;-54
2022/09/29 00:05:09;;;;;;;5.53;4.63;;;9.20;99.90;;;;;;5022328;28;20264;-55
2022/09/29 00:07:36;;;;;;;5.13;4.30;;;9.10;99.90;;;;;;5020621;28;20219;-53
2022/09/29 00:10:03;;;;;;;6.03;5.17;;;8.90;99.90;;;;;;5024932;28;20214;-54
2022/09/29 00:12:30;;;;;;;5.17;4.57;;;9.10;99.90;;;;;;5029745;28;20208;-54
2022/09/29 00:14:57;;;;;;;5.80;5.20;;;9.10;99.90;;;;;;5030336;28;20293;-54
2022/09/29 00:17:24;;;;;;;5.90;4.83;;;9.10;99.90;;;;;;5027338;28;20296;-54
2022/09/29 00:19:51;;;;;;;4.93;4.37;;;9.10;99.90;;;;;;5024279;28;20265;-53
2022/09/29 00:22:18;;;;;;;6.03;4.37;;;9.10;99.90;;;;;;5024308;28;20658;-55
2022/09/29 00:24:46;;;;;;;5.83;4.90;;;9.10;99.90;;;;;;5028415;28;20295;-54
2022/09/29 00:27:16;;;;;;;6.17;4.57;;;9.10;99.90;;;;;;5019304;28;20313;-54
2022/09/29 00:29:46;;;;;;;7.33;4.60;;;9.10;99.90;;;;;;5021429;28;20189;-54
2022/09/29 00:32:13;;;;;;;7.00;5.00;;;9.00;99.90;;;;;;5024297;28;20290;-53
2022/09/29 00:34:40;;;;;;;8.40;4.67;;;9.10;99.90;;;;;;5016719;28;20229;-53
2022/09/29 00:37:07;;;;;;;7.10;5.00;;;9.00;99.90;;;;;;5019514;28;20206;-53
2022/09/29 00:39:34;;;;;;;6.10;5.17;;;9.00;99.90;;;;;;5025013;28;20200;-53
2022/09/29 00:42:00;;;;;;;5.57;5.07;;;9.00;99.90;;;;;;5034894;28;20198;-52
2022/09/29 00:45:19;;;;;;;8.03;5.87;;;8.90;99.90;;;;;;5023123;28;20232;-51
2022/09/29 00:48:08;;;;;;;7.37;5.23;;;8.90;99.90;;;;;;5029925;28;20498;-55
2022/09/29 00:50:49;;;;;;;5.07;4.57;;;8.90;99.90;;;;;;5024696;28;20238;-54
2022/09/29 00:53:19;;;;;;;6.40;4.93;;;9.00;99.90;;;;;;5020762;28;20525;-52
2022/09/29 00:55:57;;;;;;;6.07;5.23;;;8.90;99.90;;;;;;5025964;28;20215;-52
2022/09/29 00:58:28;;;;;;;6.00;5.07;;;8.90;99.90;;;;;;5023176;28;20198;-52
2022/09/29 01:00:54;;;;;;;5.93;5.30;;;8.80;99.90;;;;;;5022242;28;20906;-54
2022/09/29 01:03:24;;;;;;;7.07;4.73;;;8.80;99.90;;;;;;5022553;28;20203;-53
2022/09/29 01:05:58;;;;;;;8.63;5.80;;;8.80;99.90;;;;;;5024452;28;20656;-52
2022/09/29 01:08:38;;;;;;;6.47;4.70;;;8.80;99.90;;;;;;5025106;28;20217;-53
2022/09/29 01:11:05;;;;;;;7.17;5.23;;;8.80;99.90;;;;;;5023180;28;20237;-53
2022/09/29 01:13:33;;;;;;;9.67;5.77;;;8.80;99.90;;;;;;5031374;28;20256;-52
2022/09/29 01:16:00;;;;;;;8.67;5.33;;;8.80;99.90;;;;;;5031840;28;20541;-52
2022/09/29 01:18:28;;;;;;;6.40;4.90;;;8.80;99.90;;;;;;5029096;28;20197;-52
2022/09/29 01:21:17;;;;;;;8.27;5.43;;;8.80;99.90;;;;;;5020578;28;20208;-55
2022/09/29 01:24:08;;;;;;;8.93;5.43;;;8.80;99.90;;;;;;5022173;28;20208;-53
2022/09/29 01:26:34;;;;;;;6.43;4.93;;;8.80;99.90;;;;;;5018505;28;20652;-54
2022/09/29 01:29:32;;;;;;;7.53;5.10;;;8.80;99.90;;;;;;5027298;28;20642;-53
2022/09/29 01:32:19;;;;;;;6.13;5.53;;;8.70;99.90;;;;;;5015162;28;20228;-53
2022/09/29 01:35:33;;;;;;;7.20;5.60;;;8.70;99.90;;;;;;5028857;28;20559;-52
2022/09/29 01:38:17;;;;;;;9.57;5.33;;;8.70;99.90;;;;;;5026688;28;20676;-53
2022/09/29 01:41:10;;;;;;;5.90;5.30;;;8.70;99.90;;;;;;5016531;28;20200;-52
2022/09/29 01:43:54;;;;;;;6.43;5.43;;;8.60;99.90;;;;;;5016366;28;20194;-53
2022/09/29 01:46:27;;;;;;;6.37;5.43;;;8.60;99.90;;;;;;5019807;28;20563;-55
2022/09/29 01:48:57;;;;;;;8.93;5.37;;;8.60;99.90;;;;;;5021554;28;20300;-53
2022/09/29 01:51:34;;;;;;;6.70;5.40;;;8.70;99.90;;;;;;5018566;28;20206;-53
2022/09/29 01:54:08;;;;;;;6.47;5.70;;;8.60;99.90;;;;;;5021031;28;20194;-58
2022/09/29 01:56:52;;;;;;;5.70;5.10;;;8.70;99.90;;;;;;5023223;28;20291;-52
2022/09/29 01:59:49;;;;;;;5.47;4.83;;;8.60;99.90;;;;;;5020888;28;20240;-53
2022/09/29 02:02:25;;;;;;;6.37;5.50;;;8.60;99.90;;;;;;5026507;28;20630;-53
2022/09/29 02:05:00;;;;;;;6.50;5.83;;;8.60;99.90;;;;;;5018435;28;20212;-54
2022/09/29 02:07:38;;;;;;;6.97;5.60;;;8.50;99.90;;;;;;5018253;28;20216;-54
2022/09/29 02:10:24;;;;;;;7.17;5.33;;;8.50;99.90;;;;;;5022957;28;20279;-53
2022/09/29 02:12:55;;;;;;;7.90;4.70;;;8.50;99.90;;;;;;5018895;28;20203;-55
2022/09/29 02:15:27;;;;;;;6.13;5.50;;;8.50;99.90;;;;;;5021408;28;20324;-53
2022/09/29 02:17:58;;;;;;;7.63;5.60;;;8.40;99.90;;;;;;5018378;28;20197;-53
2022/09/29 02:20:25;;;;;;;7.17;5.70;;;8.40;99.90;;;;;;5021518;28;20227;-53
2022/09/29 02:22:52;;;;;;;8.37;5.23;;;8.40;99.90;;;;;;5017389;28;20697;-53
2022/09/29 02:25:20;;;;;;;6.23;5.10;;;8.50;99.90;;;;;;5016270;28;20198;-54
2022/09/29 02:27:49;;;;;;;6.97;5.30;;;8.50;99.90;;;;;;5017195;28;20218;-54
2022/09/29 02:30:17;;;;;;;8.47;5.60;;;8.50;99.90;;;;;;5016708;28;20649;-53
2022/09/29 02:32:46;;;;;;;6.63;5.27;;;8.50;99.90;;;;;;5021391;28;20196;-56
2022/09/29 02:35:14;;;;;;;7.70;5.30;;;8.50;99.90;;;;;;5016921;28;20202;-54
2022/09/29 02:38:02;;;;;;;7.73;5.73;;;8.50;99.90;;;;;;5016542;28;20207;-54
2022/09/29 02:40:35;;;;;;;7.77;5.37;;;8.40;99.90;;;;;;5019158;28;20199;-53
2022/09/29 02:43:11;;;;;;;6.57;4.97;;;8.40;99.90;;;;;;5017333;28;20208;-53
2022/09/29 02:46:01;;;;;;;6.23;5.00;;;8.40;99.90;;;;;;5017054;28;20208;-55
2022/09/29 02:49:02;;;;;;;8.70;4.73;;;8.40;99.90;;;;;;5018168;28;20223;-54
2022/09/29 02:51:43;;;;;;;8.13;5.40;;;8.30;99.90;;;;;;5027502;28;20282;-53
2022/09/29 02:54:34;;;;;;;7.00;5.47;;;8.30;99.90;;;;;;5014515;28;20224;-53
2022/09/29 02:57:28;;;;;;;10.30;5.57;;;8.30;99.90;;;;;;5018704;28;20287;-54
2022/09/29 03:00:09;;;;;;;8.70;5.80;;;8.30;99.90;;;;;;5013745;28;20200;-52
2022/09/29 03:02:38;;;;;;;6.33;5.40;;;8.30;99.90;;;;;;5019982;28;20233;-53
2022/09/29 03:05:10;;;;;;;7.47;5.47;;;8.20;99.90;;;;;;5014640;28;20613;-54
2022/09/29 03:07:38;;;;;;;8.03;5.43;;;8.30;99.90;;;;;;5018311;28;20291;-52
2022/09/29 03:10:07;;;;;;;6.10;5.27;;;8.20;99.90;;;;;;5012762;28;20205;-53
2022/09/29 03:12:34;;;;;;;5.40;4.90;;;8.20;99.90;;;;;;5016811;28;20204;-53
2022/09/29 03:15:01;;;;;;;6.03;5.27;;;8.20;99.90;;;;;;5015521;28;20193;-52
2022/09/29 03:17:28;;;;;;;6.00;5.40;;;8.20;99.90;;;;;;5014672;28;20204;-54
2022/09/29 03:19:55;;;;;;;7.47;5.27;;;8.10;99.90;;;;;;5018411;28;20210;-53
2022/09/29 03:22:21;;;;;;;7.17;5.50;;;8.00;99.90;;;;;;5017778;28;20209;-54
2022/09/29 03:24:48;;;;;;;6.83;6.03;;;8.10;99.90;;;;;;5016339;28;20811;-52
2022/09/29 03:27:16;;;;;;;6.20;5.60;;;8.10;99.90;;;;;;5017000;28;20204;-53
2022/09/29 03:29:43;;;;;;;7.40;5.30;;;8.10;99.90;;;;;;5014148;28;20195;-55
2022/09/29 03:32:09;;;;;;;6.87;5.33;;;8.00;99.90;;;;;;5016154;28;20201;-54
2022/09/29 03:34:36;;;;;;;6.77;5.30;;;8.00;99.90;;;;;;5018021;28;20196;-53
2022/09/29 03:37:03;;;;;;;7.27;6.10;;;8.00;99.90;;;;;;5015576;28;20199;-53
2022/09/29 03:39:30;;;;;;;7.13;5.70;;;8.00;99.90;;;;;;5017156;28;20201;-52
2022/09/29 03:41:57;;;;;;;7.03;5.50;;;8.00;99.90;;;;;;5012923;28;20276;-55
2022/09/29 03:44:24;;;;;;;9.97;5.37;;;7.90;99.90;;;;;;5017690;28;20204;-53
2022/09/29 03:46:51;;;;;;;6.13;5.17;;;8.00;99.90;;;;;;5016343;28;20201;-53
2022/09/29 03:49:18;;;;;;;9.37;5.53;;;8.00;99.90;;;;;;5019014;28;20707;-54
2022/09/29 03:51:45;;;;;;;7.97;5.73;;;8.00;99.90;;;;;;5015947;28;20280;-53
2022/09/29 03:54:12;;;;;;;9.03;6.00;;;7.90;99.90;;;;;;5018339;28;20293;-53
2022/09/29 03:56:38;;;;;;;7.10;5.70;;;8.00;99.90;;;;;;5017493;28;20197;-53
2022/09/29 03:59:08;;;;;;;6.60;5.93;;;8.00;99.90;;;;;;5019477;28;20298;-53
2022/09/29 04:01:36;;;;;;;7.17;5.63;;;8.00;99.90;;;;;;5018138;28;20271;-52
2022/09/29 04:04:05;;;;;;;8.73;5.83;;;7.90;99.90;;;;;;5020501;28;20204;-52
2022/09/29 04:06:32;;;;;;;8.60;6.30;;;8.00;99.90;;;;;;5030492;28;20667;-53
2022/09/29 04:08:59;;;;;;;9.57;5.83;;;7.90;99.90;;;;;;5026121;28;20707;-53
2022/09/29 04:11:26;;;;;;;8.47;5.77;;;7.90;99.90;;;;;;5017801;28;20203;-55
2022/09/29 04:13:53;;;;;;;5.97;5.17;;;7.90;99.90;;;;;;5022347;28;20198;-53
2022/09/29 04:16:20;;;;;;;6.63;5.43;;;7.90;99.90;;;;;;5018398;28;20207;-54
2022/09/29 04:18:47;;;;;;;8.73;6.10;;;7.90;99.90;;;;;;5028436;28;20535;-55
2022/09/29 04:21:15;;;;;;;8.13;5.60;;;7.80;99.90;;;;;;5031584;28;20665;-53
2022/09/29 04:23:42;;;;;;;6.90;6.20;;;7.80;99.90;;;;;;5030439;28;20297;-54
2022/09/29 04:26:09;;;;;;;6.50;5.73;;;7.90;99.90;;;;;;5028997;28;20731;-54
2022/09/29 04:28:37;;;;;;;8.80;6.33;;;7.90;99.90;;;;;;5029382;28;20580;-53
2022/09/29 04:31:05;;;;;;;7.43;6.60;;;7.90;99.90;;;;;;5029657;28;20741;-53
2022/09/29 04:33:32;;;;;;;8.07;6.50;;;7.90;99.90;;;;;;5029260;28;20207;-53
2022/09/29 04:35:59;;;;;;;7.87;5.63;;;7.90;99.90;;;;;;5019021;28;20209;-56
2022/09/29 04:38:26;;;;;;;10.63;6.37;;;7.90;99.90;;;;;;5022728;28;20280;-54
2022/09/29 04:40:53;;;;;;;7.77;5.97;;;7.90;99.90;;;;;;5021474;28;20219;-56
2022/09/29 04:43:19;;;;;;;6.20;5.60;;;7.80;99.90;;;;;;5019439;28;20211;-54
2022/09/29 04:45:46;;;;;;;6.90;6.03;;;7.80;99.90;;;;;;5021010;28;20674;-54
2022/09/29 04:48:13;;;;;;;11.47;6.07;;;7.80;99.90;;;;;;5018879;28;20211;-54
2022/09/29 04:50:40;;;;;;;9.10;6.40;;;7.80;99.90;;;;;;5017609;28;20777;-54
2022/09/29 04:53:09;;;;;;;6.73;5.47;;;7.80;99.90;;;;;;5018288;28;20189;-54
2022/09/29 04:55:37;;;;;;;6.70;5.93;;;7.70;99.90;;;;;;5021516;28;20199;-54
2022/09/29 04:58:04;;;;;;;6.77;5.87;;;7.70;99.90;;;;;;5019268;28;20537;-54
2022/09/29 05:00:31;;;;;;;6.80;6.10;;;7.70;99.90;;;;;;5017109;28;20211;-54
2022/09/29 05:02:59;;;;;;;9.30;6.10;;;7.60;99.90;;;;;;5014976;28;20621;-55
2022/09/29 05:05:26;;;;;;;7.33;6.13;;;7.60;99.90;;;;;;5018158;28;20211;-53
2022/09/29 05:07:53;;;;;;;6.90;6.20;;;7.60;99.90;;;;;;5019002;28;20601;-53
2022/09/29 05:10:20;;;;;;;6.87;5.60;;;7.60;99.90;;;;;;5021237;28;20202;-53
2022/09/29 05:12:48;;;;;;;7.47;5.33;;;7.60;99.90;;;;;;5016256;28;20533;-53
2022/09/29 05:15:17;;;;;;;7.00;5.63;;;7.60;99.90;;;;;;5019475;28;20202;-55
2022/09/29 05:17:51;;;;;;;7.73;5.93;;;7.60;99.90;;;;;;5021285;28;20298;-55
2022/09/29 05:20:18;;;;;;;7.70;5.60;;;7.60;99.90;;;;;;5023081;28;20198;-54
2022/09/29 05:22:45;;;;;;;7.90;6.13;;;7.60;99.90;;;;;;5018938;28;20610;-54
2022/09/29 05:25:11;;;;;;;10.03;6.27;;;7.60;99.90;;;;;;5034628;28;20199;-56
2022/09/29 05:27:38;;;;;;;9.53;7.03;;;7.60;99.90;;;;;;5042810;28;20205;-53
2022/09/29 05:30:05;;;;;;;10.70;6.00;;;7.50;99.90;;;;;;5028346;28;20301;-56
2022/09/29 05:32:32;;;;;;;8.30;6.50;;;7.50;99.90;;;;;;5029476;28;20203;-54
2022/09/29 05:34:59;;;;;;;7.07;6.37;;;7.60;99.90;;;;;;5031442;28;20205;-56
2022/09/29 05:37:26;;;;;;;6.23;5.60;;;7.50;99.90;;;;;;5015193;28;20202;-53
2022/09/29 05:39:53;;;;;;;6.37;5.63;;;7.50;99.90;;;;;;5027425;28;20212;-54
2022/09/29 05:42:19;;;;;;;7.33;6.57;;;7.50;99.90;;;;;;5023018;28;20202;-54
2022/09/29 05:44:46;;;;;;;7.23;5.77;;;7.50;99.90;;;;;;5021506;28;20201;-52
2022/09/29 05:47:13;;;;;;;8.07;6.60;;;7.50;99.90;;;;;;5024339;28;20211;-55
2022/09/29 05:49:41;;;;;;;6.93;6.23;;;7.50;99.90;;;;;;5020893;28;20229;-54
2022/09/29 05:52:07;;;;;;;8.13;6.40;;;7.50;99.90;;;;;;5024228;28;20215;-53
2022/09/29 05:54:34;;;;;;;8.50;6.80;;;7.50;99.90;;;;;;5020885;28;20296;-53
2022/09/29 05:57:01;;;;;;;7.33;5.87;;;7.60;99.90;;;;;;5021597;28;20660;-53
2022/09/29 05:59:28;;;;;;;7.40;6.30;;;7.50;99.90;;;;;;5025739;28;20241;-54
2022/09/29 06:01:54;;;;;;;7.50;6.03;;;7.50;99.90;;;;;;5014608;28;20237;-54
2022/09/29 06:04:21;;;;;;;8.37;6.90;;;7.50;99.90;;;;;;5023408;28;20282;-53
2022/09/29 06:06:48;;;;;;;9.87;6.37;;;7.50;99.90;;;;;;5020803;28;20198;-54
2022/09/29 06:09:15;;;;;;;7.40;6.57;;;7.50;99.90;;;;;;4667583;28;9999871;-52
2022/09/29 06:11:42;;;;;;;8.10;6.57;;;7.50;99.90;;;;;;5024856;28;20206;-53
2022/09/29 06:14:09;;;;;;;8.33;6.43;;;7.50;99.90;;;;;;5024145;28;20232;-53
2022/09/29 06:16:36;;;;;;;8.90;6.77;;;7.50;99.90;;;;;;5026573;28;20295;-54
2022/09/29 06:19:03;;;;;;;7.77;6.93;;;7.60;99.90;;;;;;5032876;28;20712;-54
2022/09/29 06:21:33;;;;;;;11.47;6.83;;;7.60;99.90;;;;;;5029683;28;20214;-53
2022/09/29 06:24:00;;;;;;;8.10;6.63;;;7.60;99.90;;;;;;5028695;28;20648;-55
2022/09/29 06:26:27;;;;;;;9.20;6.90;;;7.70;99.90;;;;;;5025204;28;20673;-53
2022/09/29 06:28:55;;;;;;;9.63;6.23;;;7.70;99.90;;;;;;5019845;28;20669;-53
2022/09/29 06:31:24;;;;;;;9.03;6.67;;;7.70;99.90;;;;;;5018387;28;20198;-54
2022/09/29 06:33:52;;;;;;;12.20;7.13;;;7.70;99.90;;;;;;5019561;28;20216;-55
2022/09/29 06:39:10;;;;;;;8.20;6.77;;;7.90;99.90;;;;;;5010708;28;20665;-53
2022/09/29 06:41:37;;;;;;;9.97;6.80;;;7.80;99.90;;;;;;5018432;28;20198;-53
2022/09/29 06:44:04;;;;;;;9.60;7.20;;;7.80;99.90;;;;;;5010554;28;20206;-52
2022/09/29 06:46:31;;;;;;;10.40;6.93;;;7.90;99.90;;;;;;5014112;28;22217;-53
2022/09/29 06:48:57;;;;;;;9.60;7.50;;;7.90;99.90;;;;;;5016612;28;20216;-55
2022/09/29 06:51:25;;;;;;;10.33;7.30;;;7.90;99.90;;;;;;5014157;28;20204;-53
2022/09/29 06:54:03;;;;;;;9.70;7.50;;;8.00;99.90;;;;;;5011242;28;20622;-53
2022/09/29 06:56:37;;;;;;;9.03;7.63;;;8.10;99.90;;;;;;5013883;28;20235;-53
2022/09/29 06:59:05;;;;;;;11.30;7.57;;;8.20;99.90;;;;;;5019789;28;20208;-53
2022/09/29 07:01:33;;;;;;;8.90;7.47;;;8.30;99.90;;;;;;5008872;28;20255;-52
2022/09/29 07:04:01;;;;;;;11.57;8.03;;;8.40;99.90;;;;;;5005747;28;20238;-53
2022/09/29 07:06:28;;;;;;;9.53;7.93;;;8.50;99.90;;;;;;5016653;28;20197;-54
2022/09/29 07:08:56;;;;;;;9.77;7.93;;;8.50;99.90;;;;;;5023325;28;20295;-53
2022/09/29 07:11:24;;;;;;;11.30;7.43;;;8.60;99.90;;;;;;5014201;28;20208;-54
2022/09/29 07:13:52;;;;;;;8.03;7.20;;;8.60;99.90;;;;;;5019404;28;20486;-53
2022/09/29 07:16:22;;;;;;;11.43;8.10;;;8.70;99.90;;;;;;5013045;28;20607;-52
2022/09/29 07:18:50;;;;;;;10.93;8.50;;;8.70;99.90;;;;;;5018765;28;20753;-54
2022/09/29 07:21:18;;;;;;;8.90;7.93;;;8.80;99.90;;;;;;5015714;28;20686;-53
2022/09/29 07:23:46;;;;;;;11.13;8.57;;;8.90;99.90;;;;;;5017772;28;20209;-52
2022/09/29 07:26:15;;;;;;;10.43;8.67;;;8.90;99.90;;;;;;5022005;28;20202;-52
2022/09/29 07:28:43;;;;;;;10.00;8.40;;;8.90;99.90;;;;;;5018418;28;20224;-53
2022/09/29 07:31:13;;;;;;;10.20;7.97;;;9.00;99.90;;;;;;5017075;28;20202;-53
2022/09/29 07:33:42;;;;;;;9.57;7.73;;;9.10;99.90;;;;;;5016973;28;20282;-53
2022/09/29 07:36:09;;;;;;;10.67;8.30;;;9.10;99.90;;;;;;5015274;28;20203;-55
2022/09/29 07:38:36;;;;;;;10.27;8.57;;;9.10;99.90;;;;;;5013691;28;20202;-54
2022/09/29 07:41:09;;;;;;;10.47;8.13;;;9.10;99.90;;;;;;5017063;28;20224;-54
2022/09/29 07:43:36;;;;;;;11.40;8.60;;;9.20;99.90;;;;;;5018396;28;20230;-55
2022/09/29 07:46:04;;;;;;;11.60;8.37;;;9.30;99.90;;;;;;5016829;28;20200;-53
2022/09/29 07:48:32;;;;;;;10.10;8.47;;;9.50;99.90;;;;;;5019700;28;20623;-53
2022/09/29 07:51:01;;;;;;;12.97;8.57;;;9.50;99.90;;;;;;5012955;28;20321;-56
2022/09/29 07:53:29;;;;;;;10.50;7.90;;;9.60;99.90;;;;;;5015675;28;20195;-54
2022/09/29 07:56:11;;;;;;;12.77;9.13;;;9.70;99.90;;;;;;5018005;28;20201;-54
2022/09/29 07:58:39;;;;;;;10.73;8.53;;;10.00;99.90;;;;;;5020362;28;20642;-53
2022/09/29 08:01:09;;;;;;;10.30;8.33;;;10.10;99.90;;;;;;5013825;28;20262;-54
2022/09/29 08:03:38;;;;;;;11.67;8.70;;;10.40;99.90;;;;;;5020380;28;20653;-54
2022/09/29 08:06:06;;;;;;;10.73;9.03;;;10.70;99.90;;;;;;5017073;28;20229;-53
2022/09/29 08:08:40;;;;;;;10.27;8.50;;;10.70;99.90;;;;;;5019750;28;20332;-53
2022/09/29 08:11:22;;;;;;;10.30;8.30;;;11.00;99.90;;;;;;5024505;28;20274;-53
2022/09/29 08:13:57;;;;;;;11.07;8.43;;;11.40;99.90;;;;;;5012985;28;20202;-56
2022/09/29 08:16:24;;;;;;;11.67;8.23;;;11.50;99.90;;;;;;5017936;28;20424;-54
2022/09/29 08:18:51;;;;;;;10.07;8.57;;;11.60;99.90;;;;;;5010705;28;20288;-53
2022/09/29 08:21:18;;;;;;;11.70;8.30;;;12.00;99.90;;;;;;5014165;28;20225;-53
2022/09/29 08:23:45;;;;;;;9.40;8.30;;;12.40;99.90;;;;;;5014938;28;20290;-53
2022/09/29 08:26:17;;;;;;;9.90;8.53;;;12.40;99.90;;;;;;5015564;28;20211;-53
2022/09/29 08:28:46;;;;;;;9.30;8.20;;;12.50;99.90;;;;;;5014881;28;20222;-52
2022/09/29 08:31:21;;;;;;;9.70;7.90;;;13.00;99.90;;;;;;5015185;28;20230;-52
2022/09/29 08:33:50;;;;;;;12.93;7.87;;;13.20;99.90;;;;;;5017096;28;20261;-52
2022/09/29 08:36:19;;;;;;;11.67;8.53;;;13.20;99.90;;;;;;5017115;28;20227;-53
2022/09/29 08:38:49;;;;;;;12.50;8.50;;;13.50;99.90;;;;;;5014260;28;20208;-52
2022/09/29 08:41:28;;;;;;;12.53;8.50;;;13.50;1.00;;;;;;5011130;28;20201;-53
2022/09/29 08:44:09;;;;;;;8.83;7.93;;;13.50;99.90;;;;;;5011966;28;20189;-55
2022/09/29 08:47:19;;;;;;;8.90;8.00;;;13.70;1.00;;;;;;5014581;28;20551;-52
2022/09/29 08:49:51;;;;;;;10.03;8.17;;;14.10;99.90;;;;;;5019853;28;20674;-52
2022/09/29 08:52:25;;;;;;;9.37;8.13;;;14.30;99.90;;;;;;5011227;28;20204;-55
2022/09/29 08:55:07;;;;;;;10.97;7.47;;;14.50;99.90;;;;;;5013787;28;20559;-54
2022/09/29 08:57:46;;;;;;;9.93;7.93;;;14.70;99.90;;;;;;5021356;28;20564;-55
2022/09/29 09:00:16;;;;;;;10.27;8.17;;;14.60;99.90;;;;;;5014983;28;20200;-53
2022/09/29 09:02:55;;;;;;;10.57;8.40;;;14.30;99.90;;;;;;5015866;28;20299;-53
2022/09/29 09:05:53;;;;;;;8.63;7.73;;;14.50;99.90;;;;;;5022133;28;21214;-52
2022/09/29 09:08:38;;;;;;;12.70;8.63;;;14.00;99.90;;;;;;5019573;28;20205;-52
2022/09/29 09:11:12;;;;;;;12.73;9.47;;;13.50;99.90;;;;;;5016561;28;21507;-52
2022/09/29 09:13:55;;;;;;;8.77;7.87;;;14.10;99.90;;;;;;5020516;28;20638;-53
2022/09/29 09:17:09;;;;;;;11.30;8.10;;;14.10;99.90;;;;;;5020477;28;20207;-53
2022/09/29 09:19:47;;;;;;;12.60;8.50;;;13.70;99.90;;;;;;5034350;28;20284;-52
2022/09/29 09:22:37;;;;;;;13.17;8.80;;;13.90;99.90;;;;;;5015904;28;20204;-53
2022/09/29 09:25:37;;;;;;;10.23;8.40;;;13.80;99.90;;;;;;5018818;28;20691;-52
2022/09/29 09:28:10;;;;;;;13.57;9.20;;;13.60;99.90;;;;;;5016102;28;20546;-52
2022/09/29 09:30:46;;;;;;;11.27;8.67;;;13.90;1.00;;;;;;5012617;28;20223;-52
2022/09/29 09:33:27;;;;;;;10.73;8.10;;;14.00;99.90;;;;;;5021868;28;20207;-52
2022/09/29 09:36:12;;;;;;;9.73;8.07;;;13.90;99.90;;;;;;5012778;28;20197;-52
2022/09/29 09:38:56;;;;;;;12.00;8.37;;;13.70;99.90;;;;;;5013710;28;20383;-52
2022/09/29 09:41:25;;;;;;;11.63;8.60;;;13.70;99.90;;;;;;5020657;28;20656;-52
2022/09/29 09:43:57;;;;;;;10.50;8.07;;;13.70;99.90;;;;;;5015232;28;20560;-51
2022/09/29 09:46:43;;;;;;;8.23;7.43;;;13.70;99.90;;;;;;5021676;28;20204;-53
2022/09/29 09:49:19;;;;;;;10.13;7.93;;;13.90;99.90;;;;;;5014322;28;20213;-53
2022/09/29 09:51:58;;;;;;;9.17;7.73;;;14.10;99.90;;;;;;5018700;28;20197;-53
2022/09/29 09:54:39;;;;;;;11.77;8.80;;;14.10;99.90;;;;;;5015862;28;20585;-53
2022/09/29 09:57:30;;;;;;;9.37;7.73;;;14.10;99.90;;;;;;5014488;28;20198;-52
2022/09/29 10:00:00;;;;;;;10.47;7.87;;;13.90;99.90;;;;;;5016999;28;20226;-52
2022/09/29 10:02:29;;;;;;;8.97;7.50;;;14.00;99.90;;;;;;5018734;28;20231;-52
2022/09/29 10:04:56;;;;;;;8.07;7.20;;;14.10;99.90;;;;;;5016527;28;20646;-53
2022/09/29 10:07:26;;;;;;;9.67;7.00;;;13.80;99.90;;;;;;5015342;28;20199;-52
2022/09/29 10:09:55;;;;;;;11.13;8.00;;;13.80;99.90;;;;;;5013703;28;20209;-52
2022/09/29 10:12:23;;;;;;;7.13;5.50;;;13.90;99.90;;;;;;5017257;28;20197;-52
2022/09/29 10:15:04;;;;;;;8.30;5.90;;;14.00;99.90;;;;;;5016845;28;20199;-53
2022/09/29 10:17:41;;;;;;;7.97;6.80;;;14.10;99.90;;;;;;5019226;28;20197;-52
2022/09/29 10:20:08;;;;;;;7.27;5.20;;;14.00;99.90;;;;;;5021995;28;20198;-54
2022/09/29 10:22:35;;;;;;;7.80;5.27;;;13.90;99.90;;;;;;5019766;28;20198;-52
2022/09/29 10:25:08;;;;;;;7.20;6.07;;;13.90;99.90;;;;;;5016871;28;20290;-52
2022/09/29 10:27:40;;;;;;;6.57;5.97;;;14.10;99.90;;;;;;5019847;28;20736;-52
2022/09/29 10:30:34;;;;;;;7.63;4.97;;;14.30;99.90;;;;;;5012721;28;20243;-52
2022/09/29 10:33:05;;;;;;;9.53;5.47;;;14.40;99.90;;;;;;5013121;28;20197;-51
2022/09/29 10:35:40;;;;;;;8.57;5.87;;;14.50;99.90;;;;;;5019769;28;20285;-52
2022/09/29 10:38:26;;;;;;;6.60;4.93;;;14.30;99.90;;;;;;5017563;28;20285;-52
2022/09/29 10:40:56;;;;;;;8.17;5.67;;;14.50;99.90;;;;;;5014858;28;20548;-54
2022/09/29 10:43:26;;;;;;;7.17;5.20;;;14.40;99.90;;;;;;5016943;28;20239;-54
2022/09/29 10:45:57;;;;;;;5.93;4.73;;;14.60;99.90;;;;;;5015882;28;20211;-54
2022/09/29 10:48:25;;;;;;;8.53;4.93;;;14.50;99.90;;;;;;5018632;28;20199;-55
2022/09/29 10:50:58;;;;;;;7.40;4.97;;;14.70;99.90;;;;;;5013082;28;20238;-53
2022/09/29 10:53:41;;;;;;;5.77;5.13;;;14.70;99.90;;;;;;5017690;28;20199;-52
2022/09/29 10:56:08;;;;;;;13.57;4.67;;;14.50;99.90;;;;;;5016823;28;20203;-52
2022/09/29 10:58:39;;;;;;;5.40;4.90;;;14.50;99.90;;;;;;5013819;28;20281;-52
2022/09/29 11:01:26;;;;;;;6.73;4.97;;;14.30;99.90;;;;;;5014043;28;20668;-57
2022/09/29 11:04:04;;;;;;;7.13;5.37;;;14.30;99.90;;;;;;5020293;28;20606;-52
2022/09/29 11:06:33;;;;;;;6.30;5.20;;;14.20;99.90;;;;;;5014418;28;20197;-52
2022/09/29 11:09:29;;;;;;;5.80;5.23;;;14.20;99.90;;;;;;5015191;28;20233;-53
2022/09/29 11:11:57;;;;;;;7.93;5.13;;;14.30;99.90;;;;;;5012633;28;20673;-53
2022/09/29 11:14:35;;;;;;;5.33;4.60;;;14.50;99.90;;;;;;5016153;28;20198;-53
2022/09/29 11:17:36;;;;;;;6.17;4.90;;;14.80;99.90;;;;;;5013725;28;20189;-53
2022/09/29 11:20:10;;;;;;;5.57;4.90;;;14.70;99.90;;;;;;5016711;28;20621;-52
2022/09/29 11:22:45;;;;;;;7.87;5.43;;;15.00;99.90;;;;;;5017049;28;20817;-53
2022/09/29 11:25:36;;;;;;;5.60;4.70;;;15.10;99.90;;;;;;5014276;28;20201;-53
2022/09/29 11:28:27;;;;;;;7.17;4.80;;;15.30;99.90;;;;;;5022411;28;20518;-53
2022/09/29 11:31:16;;;;;;;5.93;4.80;;;15.70;99.90;;;;;;5013195;28;20648;-52
2022/09/29 11:34:02;;;;;;;5.37;4.67;;;15.70;99.90;;;;;;5015601;28;20297;-53
2022/09/29 11:36:41;;;;;;;5.23;4.43;;;15.20;99.90;;;;;;5020163;28;20199;-53
2022/09/29 11:39:37;;;;;;;5.07;4.00;;;15.20;99.90;;;;;;5017081;28;20204;-53
2022/09/29 11:42:47;;;;;;;5.37;4.80;;;15.70;99.90;;;;;;5024653;28;20194;-53
2022/09/29 11:45:19;;;;;;;7.93;4.50;;;16.00;99.90;;;;;;5014015;28;20201;-52
2022/09/29 11:48:11;;;;;;;5.60;4.03;;;15.80;99.90;;;;;;5018042;28;20724;-53
2022/09/29 11:51:08;;;;;;;5.57;3.77;;;16.10;99.90;;;;;;5011083;28;20574;-53
2022/09/29 11:54:10;;;;;;;5.13;3.87;;;16.60;99.90;;;;;;5013568;28;20626;-53
2022/09/29 11:56:55;;;;;;;4.67;3.17;;;16.50;99.90;;;;;;5031347;28;20623;-53
2022/09/29 11:59:31;;;;;;;4.13;3.67;;;16.70;99.90;;;;;;5011997;28;20928;-63
2022/09/29 12:02:30;;;;;;;4.13;3.73;;;16.00;99.90;;;;;;5009626;28;20241;-62
2022/09/29 12:05:12;;;;;;;5.60;3.23;;;15.90;99.90;;;;;;5014524;28;20540;-55
2022/09/29 12:07:45;;;;;;;4.43;2.90;;;16.70;99.90;;;;;;5014718;28;20191;-53
2022/09/29 12:10:43;;;;;;;3.57;2.83;;;16.50;99.90;;;;;;5016081;28;20226;-52
2022/09/29 12:13:09;;;;;;;6.40;3.10;;;16.10;99.90;;;;;;5011659;28;20219;-53
2022/09/29 12:15:50;;;;;;;3.77;3.27;;;16.10;99.90;;;;;;5010369;28;20215;-52
2022/09/29 12:18:25;;;;;;;3.73;3.23;;;16.00;99.90;;;;;;5019444;28;20559;-52
2022/09/29 12:20:54;;;;;;;4.20;2.90;;;15.90;99.90;;;;;;5003790;28;20210;-52
2022/09/29 12:23:25;;;;;;;3.50;3.13;;;15.60;99.90;;;;;;5010365;28;20238;-53
2022/09/29 12:25:55;;;;;;;5.23;3.53;;;15.60;99.90;;;;;;5034253;28;20617;-53
2022/09/29 12:28:29;;;;;;;3.70;3.30;;;15.50;99.90;;;;;;5029773;28;20310;-53
2022/09/29 12:31:09;;;;;;;5.67;3.00;;;15.50;99.90;;;;;;5021877;28;20219;-53
2022/09/29 12:34:00;;;;;;;3.93;3.17;;;15.50;99.90;;;;;;5023039;28;20204;-52
2022/09/29 12:37:04;;;;;;;4.07;3.00;;;15.40;99.90;;;;;;5022732;28;20203;-53
2022/09/29 12:39:36;;;;;;;3.47;2.83;;;15.00;99.90;;;;;;5029029;28;20252;-53
2022/09/29 12:42:12;;;;;;;4.27;3.27;;;15.10;99.90;;;;;;5017286;28;20613;-54
2022/09/29 12:44:49;;;;;;;3.47;2.93;;;15.20;99.90;;;;;;5012598;28;20607;-52
2022/09/29 12:47:43;;;;;;;3.23;2.90;;;15.20;99.90;;;;;;5016193;28;20549;-54
2022/09/29 12:50:21;;;;;;;3.40;3.10;;;15.20;99.90;;;;;;5022020;28;20256;-53
2022/09/29 12:53:02;;;;;;;4.80;3.23;;;15.20;99.90;;;;;;5025035;28;20199;-52
2022/09/29 12:55:47;;;;;;;3.17;2.57;;;15.20;99.90;;;;;;5014644;28;20217;-53
2022/09/29 12:58:40;;;;;;;3.60;2.90;;;15.10;99.90;;;;;;5020780;28;20204;-53
2022/09/29 13:01:20;;;;;;;2.50;2.30;;;15.20;99.90;;;;;;5020739;28;20257;-52
2022/09/29 13:04:24;;;;;;;3.27;2.83;;;15.20;99.90;;;;;;5017956;28;20248;-53
2022/09/29 13:07:22;;;;;;;3.57;3.07;;;15.20;99.90;;;;;;5021979;28;20204;-53
2022/09/29 13:10:08;;;;;;;3.57;3.27;;;15.20;99.90;;;;;;5013847;28;20966;-52
2022/09/29 13:13:12;;;;;;;4.60;2.87;;;15.20;99.90;;;;;;5021021;28;20199;-51
2022/09/29 13:15:51;;;;;;;4.13;2.97;;;15.20;99.90;;;;;;5018386;28;20200;-55
2022/09/29 13:18:40;;;;;;;3.37;2.73;;;15.10;99.90;;;;;;5018476;28;20598;-52
2022/09/29 13:21:53;;;;;;;3.30;3.00;;;15.10;99.90;;;;;;5022190;28;20200;-53
2022/09/29 13:24:26;;;;;;;3.33;2.03;;;15.20;99.90;;;;;;5013434;28;20204;-53
2022/09/29 13:27:28;;;;;;;3.27;2.30;;;15.10;99.90;;;;;;5005646;28;20220;-52
2022/09/29 13:30:10;;;;;;;3.20;2.37;;;15.20;99.90;;;;;;5008854;28;20199;-53